Main page
METAR-TAF:

METAR-TAF

Airports :

Sukkur Airport

Sukkur, Pakistan

latitude: 27-43-19N, longitude: 068-47-31E, elevation: 60 m

Current weather observation

The report was made 1 hour and 13 minutes ago, at 21:00 UTC
Calm wind
Temperature 10°C
Humidity 93%
Pressure 1014 hPa
Visibility: 0800 m
fog

METAR: OPSK 222100Z 00000KT 0800 FG NSC 10/09 Q1014 TEMPO 0500 FG

Time: 03:13 (22:13 UTC)

Forecast

The report was made 12 hours and 43 minutes ago, at 09:30 UTC
Forecast valid from 22 at 12 UTC to 23 at 12 UTC
Wind 6 kt from the North
Visibility: 4000 m
haze
From 22 at 2100 UTC
Wind 5 kt from the Northwest
Visibility: 2000 m
mist
Temporary
from 23 at 00 UTC to 23 at 04 UTC
Wind 3 kt from variable directions
Visibility: 1000 m
mist
From 23 at 0600 UTC
Wind 8 kt from the North/Northeast
Visibility: 4000 m
haze

TAF: OPSK 220930Z 2212/2312 35006KT 4000 HZ NSC FM222100 32005KT 2000 BR NSC TEMPO 2300/2304 VRB03KT 1000 BR NSC FM230600 03008KT 4000 HZ NSC

Weather observations and forecasts of more than 4000 airports (METAR and TAF reports).

The available stations are represented by yellow and red dots on the map.

Hover mouse over dot to see the name of the station.

Then click to see weather observations and forecasts.

To change the map : click on the green buttons with a black cross to zoom in, on the green button with a dash to zoom out, or on the green arrows for adjacent maps.


METAR-TAF: